createdAt,value
2018-12-19T00:02:26.413Z,98458.34
2018-12-19T00:05:00.228Z,98448.90
2018-12-19T00:07:34.207Z,98454.57
2018-12-19T00:10:08.521Z,98454.95
2018-12-19T00:12:42.449Z,98460.00
2018-12-19T00:15:16.560Z,98456.36
2018-12-19T00:17:50.468Z,98462.11
2018-12-19T00:20:24.275Z,98468.61
2018-12-19T00:22:58.155Z,98464.48
2018-12-19T00:25:32.059Z,98465.41
2018-12-19T00:28:06.207Z,98465.30
2018-12-19T00:30:40.417Z,98459.77
2018-12-19T00:33:14.423Z,98458.48
2018-12-19T00:35:48.106Z,98459.66
2018-12-19T00:38:21.906Z,98460.48
2018-12-19T00:40:55.680Z,98447.16
2018-12-19T00:43:29.642Z,98444.43
2018-12-19T00:46:03.728Z,98433.94
2018-12-19T00:48:37.764Z,98387.28
2018-12-19T00:51:11.574Z,98436.90
2018-12-19T00:53:45.682Z,98435.25
2018-12-19T00:56:19.589Z,98425.48
2018-12-19T00:58:53.352Z,98416.77
2018-12-19T01:01:27.507Z,98428.32
2018-12-19T01:04:01.121Z,98422.42
2018-12-19T01:06:34.963Z,98423.59
2018-12-19T01:09:08.922Z,98420.27
2018-12-19T01:11:42.784Z,98414.51
2018-12-19T01:14:16.817Z,98421.11
2018-12-19T01:16:50.866Z,98422.64
2018-12-19T01:19:24.959Z,98418.88
2018-12-19T01:21:58.807Z,98417.59
2018-12-19T01:24:32.772Z,98416.63
2018-12-19T01:27:07.601Z,98418.03
2018-12-19T01:29:41.340Z,98417.09
2018-12-19T01:32:15.141Z,98416.52
2018-12-19T01:34:48.896Z,98407.20
2018-12-19T01:37:22.923Z,98399.06
2018-12-19T01:39:56.690Z,98401.91
2018-12-19T01:42:30.738Z,98399.42
2018-12-19T01:45:06.741Z,98393.16
2018-12-19T01:47:40.510Z,98400.33
2018-12-19T01:50:14.609Z,98398.70
2018-12-19T01:52:48.517Z,98393.39
2018-12-19T01:55:22.315Z,98394.83
2018-12-19T01:57:56.436Z,98399.14
2018-12-19T02:00:32.080Z,98398.22
2018-12-19T02:03:06.198Z,98397.50
2018-12-19T02:05:40.100Z,98390.22
2018-12-19T02:08:14.007Z,98386.63
2018-12-19T02:10:47.813Z,98379.91
2018-12-19T02:13:21.822Z,98381.05
2018-12-19T02:15:55.626Z,98374.97
2018-12-19T02:18:29.636Z,98373.23
2018-12-19T02:21:03.457Z,98362.80
2018-12-19T02:23:37.556Z,98359.47
2018-12-19T02:26:11.184Z,98353.92
2018-12-19T02:28:45.162Z,98343.38
2018-12-19T02:31:18.967Z,98341.93
2018-12-19T02:33:52.976Z,98338.16
2018-12-19T02:36:26.988Z,98334.56
2018-12-19T02:39:00.855Z,98335.89
2018-12-19T02:41:35.009Z,98340.65
2018-12-19T02:44:08.860Z,98335.53
2018-12-19T02:46:43.001Z,98333.51
2018-12-19T02:49:17.034Z,98332.20
2018-12-19T02:51:51.044Z,98337.77
2018-12-19T02:54:25.395Z,98327.71
2018-12-19T02:56:59.168Z,98336.85
2018-12-19T02:59:33.149Z,98334.02
2018-12-19T03:02:07.202Z,98326.34
2018-12-19T03:04:41.194Z,98311.95
2018-12-19T03:07:15.204Z,98327.27
2018-12-19T03:09:48.821Z,98321.23
2018-12-19T03:12:22.917Z,98319.61
2018-12-19T03:14:56.668Z,98320.91
2018-12-19T03:17:30.729Z,98326.20
2018-12-19T03:20:04.945Z,98274.73
2018-12-19T03:22:38.954Z,98346.05
2018-12-19T03:25:12.831Z,98324.13
2018-12-19T03:27:46.972Z,98333.08
2018-12-19T03:30:20.758Z,98326.63
2018-12-19T03:32:54.993Z,98320.98
2018-12-19T03:35:28.900Z,98323.33
2018-12-19T03:38:02.911Z,98320.42
2018-12-19T03:40:36.718Z,98314.55
2018-12-19T03:43:10.564Z,98309.48
2018-12-19T03:45:44.530Z,98315.00
2018-12-19T03:48:23.966Z,98313.70
2018-12-19T03:50:58.024Z,98313.42
2018-12-19T03:53:32.062Z,98308.30
2018-12-19T03:56:06.198Z,98309.82
2018-12-19T03:58:40.105Z,98307.05
2018-12-19T04:01:13.909Z,98300.11
2018-12-19T04:03:47.715Z,98306.91
2018-12-19T04:06:21.464Z,97457.33
2018-12-19T04:08:55.529Z,98301.66
2018-12-19T04:11:29.339Z,98297.45
2018-12-19T04:14:03.145Z,98299.52
2018-12-19T04:16:37.369Z,98299.84
2018-12-19T04:19:11.261Z,98300.19
2018-12-19T04:21:45.174Z,98309.80
2018-12-19T04:24:18.919Z,98304.56
2018-12-19T04:26:52.957Z,98312.26
2018-12-19T04:29:27.094Z,98314.70
2018-12-19T04:32:01.014Z,98319.98
2018-12-19T04:34:35.013Z,98321.16
2018-12-19T04:37:08.920Z,98326.56
2018-12-19T04:39:42.627Z,98302.73
2018-12-19T04:42:16.528Z,98301.58
2018-12-19T04:44:50.439Z,98296.93
2018-12-19T04:47:24.450Z,98292.87
2018-12-19T04:49:58.555Z,98296.85
2018-12-19T04:52:32.657Z,98288.23
2018-12-19T04:55:06.780Z,98289.30
2018-12-19T04:57:40.792Z,98291.91
2018-12-19T05:00:14.777Z,98284.64
2018-12-19T05:02:48.813Z,98283.64
2018-12-19T05:05:22.820Z,98278.29
2018-12-19T05:07:57.138Z,98282.34
2018-12-19T05:10:31.046Z,98287.25
2018-12-19T05:13:04.852Z,98285.64
2018-12-19T05:15:38.762Z,98276.69
2018-12-19T05:18:12.661Z,98274.22
2018-12-19T05:20:46.468Z,98284.22
2018-12-19T05:23:20.579Z,98286.77
2018-12-19T05:25:54.383Z,98274.06
2018-12-19T05:28:28.291Z,98272.80
2018-12-19T05:31:02.914Z,98270.83
2018-12-19T05:33:36.923Z,98280.36
2018-12-19T05:36:10.934Z,98286.80
2018-12-19T05:38:44.739Z,98278.93
2018-12-19T05:41:18.851Z,98287.06
2018-12-19T05:43:52.685Z,98288.75
2018-12-19T05:46:26.666Z,98289.42
2018-12-19T05:49:00.540Z,98295.78
2018-12-19T05:51:34.527Z,98293.11
2018-12-19T05:54:08.595Z,98286.84
2018-12-19T05:56:42.397Z,98285.20
2018-12-19T05:59:16.411Z,98284.91
2018-12-19T06:01:50.417Z,98280.72
2018-12-19T06:04:24.260Z,98275.75
2018-12-19T06:06:58.017Z,98275.21
2018-12-19T06:09:31.839Z,98275.02
2018-12-19T06:12:05.530Z,98279.84
2018-12-19T06:14:39.356Z,98282.80
2018-12-19T06:17:13.348Z,98277.13
2018-12-19T06:19:47.152Z,98281.36
2018-12-19T06:22:21.274Z,98276.21
2018-12-19T06:24:55.171Z,98268.48
2018-12-19T06:27:28.976Z,98270.77
2018-12-19T06:30:02.883Z,98267.27
2018-12-19T06:32:37.301Z,98268.47
2018-12-19T06:35:11.224Z,98266.94
2018-12-19T06:37:45.017Z,98267.00
2018-12-19T06:40:18.928Z,98260.12
2018-12-19T06:42:54.316Z,98271.48
2018-12-19T06:45:28.169Z,98271.03
2018-12-19T06:48:02.386Z,98263.50
2018-12-19T06:50:36.495Z,98275.77
2018-12-19T06:53:10.403Z,98280.98
2018-12-19T06:55:44.200Z,98277.84
2018-12-19T06:58:18.218Z,98286.17
2018-12-19T07:00:51.894Z,98295.02
2018-12-19T07:03:25.928Z,98294.02
2018-12-19T07:05:59.938Z,98301.31
2018-12-19T07:08:33.948Z,98302.94
2018-12-19T07:11:07.722Z,98307.48
2018-12-19T07:13:41.864Z,98307.11
2018-12-19T07:16:15.877Z,98312.06
2018-12-19T07:18:49.678Z,98311.76
2018-12-19T07:21:23.586Z,98308.06
2018-12-19T07:23:57.698Z,98316.34
2018-12-19T07:26:31.605Z,98298.06
2018-12-19T07:29:05.320Z,98299.98
2018-12-19T07:31:39.317Z,98296.19
2018-12-19T07:34:13.227Z,98354.45
2018-12-19T07:36:47.047Z,98302.80
2018-12-19T07:39:21.039Z,98299.90
2018-12-19T07:41:55.048Z,98296.52
2018-12-19T07:44:29.060Z,98289.80
2018-12-19T07:47:02.864Z,98292.27
2018-12-19T07:49:36.684Z,98288.74
2018-12-19T07:52:10.575Z,98293.45
2018-12-19T07:54:44.485Z,98288.63
2018-12-19T07:57:18.287Z,98284.12
2018-12-19T07:59:52.053Z,98275.42
2018-12-19T08:02:26.100Z,98283.73
2018-12-19T08:05:00.008Z,98301.50
2018-12-19T08:07:33.916Z,98306.68
2018-12-19T08:10:07.926Z,98307.40
2018-12-19T08:12:41.934Z,98307.36
2018-12-19T08:15:15.844Z,98306.58
2018-12-19T08:17:49.708Z,98307.64
2018-12-19T08:20:23.655Z,98315.78
2018-12-19T08:22:57.531Z,98306.06
2018-12-19T08:25:31.470Z,98312.56
2018-12-19T08:28:05.684Z,98304.92
2018-12-19T08:30:39.594Z,98307.34
2018-12-19T08:33:13.408Z,98308.35
2018-12-19T08:35:47.611Z,98308.19
2018-12-19T08:38:21.344Z,98311.55
2018-12-19T08:40:58.718Z,98308.81
2018-12-19T08:43:30.972Z,98302.88
2018-12-19T08:46:04.674Z,98300.52
2018-12-19T08:48:38.598Z,98306.72
2018-12-19T08:51:12.455Z,98312.69
2018-12-19T08:53:46.349Z,98318.86
2018-12-19T08:56:20.259Z,98312.98
2018-12-19T08:58:54.210Z,98319.08
2018-12-19T09:01:28.221Z,98323.47
2018-12-19T09:04:02.127Z,98321.69
2018-12-19T09:06:36.034Z,98312.02
2018-12-19T09:09:09.793Z,98317.27
2018-12-19T09:11:43.645Z,98320.41
2018-12-19T09:14:17.616Z,98320.05
2018-12-19T09:16:51.687Z,98321.48
2018-12-19T09:19:25.678Z,98323.31
2018-12-19T09:21:59.785Z,98318.41
2018-12-19T09:24:33.897Z,98325.82
2018-12-19T09:27:07.802Z,98331.66
2018-12-19T09:29:41.655Z,98323.56
2018-12-19T09:32:15.719Z,98323.47
2018-12-19T09:34:49.426Z,98328.74
2018-12-19T09:37:23.369Z,98322.64
2018-12-19T09:39:57.133Z,98324.33
2018-12-19T09:42:30.805Z,98318.09
2018-12-19T09:45:04.845Z,98327.21
2018-12-19T09:47:38.878Z,98331.84
2018-12-19T09:50:12.659Z,98332.20
2018-12-19T09:52:46.469Z,98330.81
2018-12-19T09:55:20.475Z,98335.22
2018-12-19T09:57:54.381Z,98328.94
2018-12-19T10:00:28.390Z,98321.69
2018-12-19T10:03:02.351Z,98320.48
2018-12-19T10:05:36.311Z,98331.83
2018-12-19T10:08:10.219Z,98320.77
2018-12-19T10:10:44.124Z,98319.98
2018-12-19T10:13:17.927Z,98329.09
2018-12-19T10:15:51.833Z,98323.84
2018-12-19T10:18:25.843Z,98316.23
2018-12-19T10:20:59.853Z,98311.66
2018-12-19T10:23:33.863Z,98315.09
2018-12-19T10:26:12.888Z,98304.22
2018-12-19T10:28:46.796Z,98304.13
2018-12-19T10:31:20.808Z,98298.95
2018-12-19T10:33:54.817Z,98298.50
2018-12-19T10:36:34.561Z,98296.89
2018-12-19T10:39:12.931Z,98295.40
2018-12-19T10:41:46.950Z,98291.63
2018-12-19T10:44:20.941Z,98293.34
2018-12-19T10:46:55.129Z,98291.69
2018-12-19T10:49:29.071Z,98291.58
2018-12-19T10:52:03.225Z,98285.36
2018-12-19T10:54:37.101Z,98284.14
2018-12-19T10:57:11.143Z,98287.91
2018-12-19T10:59:45.264Z,98288.25
2018-12-19T11:02:19.264Z,98286.23
2018-12-19T11:04:54.335Z,98281.78
2018-12-19T11:07:28.512Z,98274.79
2018-12-19T11:10:02.160Z,98279.73
2018-12-19T11:12:36.028Z,98279.17
2018-12-19T11:15:10.298Z,98277.49
2018-12-19T11:17:44.353Z,98283.40
2018-12-19T11:20:19.382Z,98278.20
2018-12-19T11:22:53.286Z,98275.30
2018-12-19T11:25:27.079Z,98279.17
2018-12-19T11:28:01.100Z,98281.39
2018-12-19T11:30:35.008Z,98280.98
2018-12-19T11:33:09.020Z,98276.25
2018-12-19T11:35:42.827Z,98279.08
2018-12-19T11:38:16.729Z,98283.49
2018-12-19T11:40:50.500Z,98278.31
2018-12-19T11:43:24.745Z,98264.72
2018-12-19T11:45:58.662Z,98269.33
2018-12-19T11:48:32.871Z,98275.39
2018-12-19T11:51:06.680Z,98277.95
2018-12-19T11:53:40.891Z,98272.02
2018-12-19T11:56:14.586Z,98273.28
2018-12-19T11:58:48.397Z,98265.41
2018-12-19T12:01:22.108Z,98262.63
2018-12-19T12:03:56.006Z,98256.76
2018-12-19T12:06:29.874Z,98256.50
2018-12-19T12:09:06.176Z,98266.13
2018-12-19T12:11:45.601Z,98253.02
2018-12-19T12:14:16.349Z,98251.18
2018-12-19T12:16:50.561Z,98254.05
2018-12-19T12:19:24.372Z,98259.54
2018-12-19T12:21:58.581Z,98262.94
2018-12-19T12:24:32.378Z,98260.09
2018-12-19T12:27:06.394Z,98253.39
2018-12-19T12:29:40.204Z,98250.31
2018-12-19T12:32:14.400Z,98259.65
2018-12-19T12:34:48.426Z,98262.49
2018-12-19T12:37:22.433Z,98255.34
2018-12-19T12:39:56.237Z,98268.66
2018-12-19T12:42:30.042Z,98262.64
2018-12-19T12:45:04.885Z,98260.05
2018-12-19T12:47:38.883Z,98249.30
2018-12-19T12:50:12.633Z,98243.31
2018-12-19T12:52:46.695Z,98250.44
2018-12-19T12:55:20.604Z,98250.61
2018-12-19T12:57:54.579Z,98246.31
2018-12-19T13:00:28.568Z,98244.76
2018-12-19T13:03:02.631Z,98238.05
2018-12-19T13:05:36.538Z,98238.97
2018-12-19T13:08:10.287Z,98243.23
2018-12-19T13:10:44.250Z,98245.89
2018-12-19T13:13:17.959Z,98247.80
2018-12-19T13:15:51.757Z,98250.05
2018-12-19T13:18:25.665Z,98248.77
2018-12-19T13:20:59.376Z,98240.09
2018-12-19T13:23:33.378Z,98245.08
2018-12-19T13:26:07.369Z,98244.11
2018-12-19T13:28:41.400Z,98237.64
2018-12-19T13:31:15.302Z,98229.22
2018-12-19T13:33:49.210Z,98222.72
2018-12-19T13:36:23.380Z,98218.15
2018-12-19T13:38:57.320Z,98222.30
2018-12-19T13:41:31.444Z,98217.37
2018-12-19T13:44:05.225Z,98225.67
2018-12-19T13:46:39.372Z,98219.53
2018-12-19T13:49:13.226Z,98230.06
2018-12-19T13:51:47.175Z,98225.08
2018-12-19T13:54:20.981Z,98224.97
2018-12-19T13:56:54.886Z,98228.98
2018-12-19T13:59:28.866Z,98218.21
2018-12-19T14:02:02.908Z,98214.30
2018-12-19T14:04:36.997Z,98199.23
2018-12-19T14:07:11.336Z,98200.41
2018-12-19T14:09:45.402Z,98201.70
2018-12-19T14:12:19.458Z,98207.09
2018-12-19T14:14:53.173Z,98206.77
2018-12-19T14:17:27.378Z,98196.12
2018-12-19T14:20:01.178Z,98201.70
2018-12-19T14:22:34.983Z,98199.09
2018-12-19T14:25:08.844Z,98205.00
2018-12-19T14:27:43.002Z,98206.00
2018-12-19T14:30:16.755Z,98201.38
2018-12-19T14:32:50.818Z,98213.17
2018-12-19T14:35:24.724Z,98201.39
2018-12-19T14:37:58.631Z,98202.37
2018-12-19T14:40:32.436Z,98201.86
2018-12-19T14:43:06.241Z,98205.78
2018-12-19T14:45:40.049Z,98215.69
2018-12-19T14:48:14.054Z,98200.65
2018-12-19T14:50:47.707Z,98200.89
2018-12-19T14:53:21.664Z,98188.98
2018-12-19T14:55:55.673Z,98190.14
2018-12-19T14:58:29.332Z,98194.70
2018-12-19T15:01:03.294Z,98190.30
2018-12-19T15:03:37.294Z,98194.01
2018-12-19T15:06:11.200Z,98199.58
2018-12-19T15:08:45.108Z,98195.98
2018-12-19T15:11:18.924Z,98190.73
2018-12-19T15:13:52.715Z,98207.84
2018-12-19T15:16:27.648Z,98210.09
2018-12-19T15:19:01.453Z,98200.90
2018-12-19T15:21:35.668Z,98203.51
2018-12-19T15:24:09.476Z,98214.01
2018-12-19T15:26:43.659Z,98221.76
2018-12-19T15:29:17.696Z,98218.76
2018-12-19T15:31:51.507Z,98218.16
2018-12-19T15:34:25.517Z,98209.92
2018-12-19T15:36:59.528Z,98207.94
2018-12-19T15:39:33.497Z,98212.61
2018-12-19T15:42:07.644Z,98218.38
2018-12-19T15:44:42.574Z,98213.98
2018-12-19T15:47:16.380Z,98210.51
2018-12-19T15:49:50.285Z,98204.43
2018-12-19T15:52:24.195Z,98208.48
2018-12-19T15:55:00.135Z,98206.42
2018-12-19T15:57:34.054Z,98204.32
2018-12-19T16:00:10.215Z,98197.95
2018-12-19T16:02:44.225Z,98197.96
2018-12-19T16:05:18.234Z,98207.73
2018-12-19T16:07:52.039Z,98209.03
2018-12-19T16:10:25.844Z,98206.08
2018-12-19T16:12:59.750Z,98208.48
2018-12-19T16:15:33.457Z,98213.94
2018-12-19T16:18:07.637Z,98222.54
2018-12-19T16:20:41.678Z,98214.44
2018-12-19T16:23:15.688Z,98221.82
2018-12-19T16:25:49.481Z,98233.75
2018-12-19T16:28:23.604Z,98236.44
2018-12-19T16:30:57.512Z,98233.83
2018-12-19T16:33:31.623Z,98242.97
2018-12-19T16:36:05.391Z,98247.85
2018-12-19T16:38:39.437Z,98247.16
2018-12-19T16:41:13.345Z,98245.72
2018-12-19T16:43:47.165Z,98239.33
2018-12-19T16:46:21.159Z,98231.34
2018-12-19T16:48:55.169Z,98233.45
2018-12-19T16:51:29.178Z,98223.81
2018-12-19T16:54:04.109Z,98228.08
2018-12-19T16:56:37.913Z,98228.59
2018-12-19T16:59:11.923Z,98220.38
2018-12-19T17:01:46.035Z,98226.84
2018-12-19T17:04:20.664Z,98223.13
2018-12-19T17:06:54.669Z,98235.88
2018-12-19T17:09:28.579Z,98224.81
2018-12-19T17:12:02.386Z,98214.50
2018-12-19T17:14:36.290Z,98218.63
2018-12-19T17:17:10.064Z,98216.84
2018-12-19T17:19:44.210Z,98214.67
2018-12-19T17:22:18.118Z,98219.45
2018-12-19T17:24:52.124Z,98221.28
2018-12-19T17:27:25.894Z,98231.38
2018-12-19T17:30:00.056Z,98222.62
2018-12-19T17:32:34.770Z,98222.52
2018-12-19T17:35:08.839Z,98217.94
2018-12-19T17:37:42.887Z,98212.58
2018-12-19T17:40:16.898Z,98205.39
2018-12-19T17:42:50.908Z,98218.42
2018-12-19T17:45:24.920Z,98212.98
2018-12-19T17:47:58.730Z,98218.04
2018-12-19T17:50:33.244Z,98223.50
2018-12-19T17:53:07.048Z,98220.89
2018-12-19T17:55:41.057Z,98225.59
2018-12-19T17:58:15.069Z,98223.15
2018-12-19T18:00:48.834Z,98215.35
2018-12-19T18:03:22.830Z,98220.02
2018-12-19T18:05:56.892Z,98225.87
2018-12-19T18:08:31.440Z,98221.88
2018-12-19T18:11:05.525Z,98222.89
2018-12-19T18:13:39.649Z,98220.66
2018-12-19T18:16:13.544Z,98224.19
2018-12-19T18:18:47.451Z,98228.08
2018-12-19T18:21:21.359Z,98227.42
2018-12-19T18:23:55.266Z,98232.75
2018-12-19T18:26:30.024Z,98232.80
2018-12-19T18:29:03.925Z,98226.32
2018-12-19T18:31:37.807Z,98225.55
2018-12-19T18:34:11.920Z,98222.54
2018-12-19T18:36:45.976Z,98219.91
2018-12-19T18:39:25.955Z,98223.96
2018-12-19T18:41:56.202Z,98219.75
2018-12-19T18:44:30.008Z,98217.83
2018-12-19T18:47:03.914Z,98212.75
2018-12-19T18:49:37.720Z,98207.05
2018-12-19T18:52:11.530Z,98207.92
2018-12-19T18:54:45.434Z,98210.80
2018-12-19T18:57:19.752Z,98219.50
2018-12-19T18:59:53.512Z,98215.58
2018-12-19T19:02:27.365Z,98196.20
2018-12-19T19:05:01.573Z,98203.80
2018-12-19T19:07:35.490Z,98202.16
2018-12-19T19:10:09.693Z,98202.86
2018-12-19T19:12:43.503Z,98206.00
2018-12-19T19:15:17.510Z,98200.78
2018-12-19T19:17:51.213Z,98209.27
2018-12-19T19:20:25.184Z,98207.12
2018-12-19T19:22:59.232Z,98207.30
2018-12-19T19:25:33.046Z,98209.38
2018-12-19T19:28:07.146Z,98213.89
2018-12-19T19:30:41.158Z,98201.92
2018-12-19T19:33:15.064Z,98203.36
2018-12-19T19:35:49.234Z,98194.05
2018-12-19T19:38:23.064Z,98191.58
2018-12-19T19:40:57.195Z,98191.98
2018-12-19T19:43:30.841Z,98183.29
2018-12-19T19:46:04.805Z,98180.15
2018-12-19T19:48:38.577Z,98189.92
2018-12-19T19:51:16.971Z,98181.22
2018-12-19T19:53:48.472Z,98167.52
2018-12-19T19:56:22.482Z,98164.65
2018-12-19T19:58:56.360Z,98163.64
2018-12-19T20:01:30.503Z,98160.87
2018-12-19T20:04:04.513Z,98160.87
2018-12-19T20:06:38.725Z,98162.81
2018-12-19T20:09:12.736Z,98160.09
2018-12-19T20:11:46.440Z,98160.52
2018-12-19T20:14:20.145Z,98163.89
2018-12-19T20:16:59.750Z,98162.73
2018-12-19T20:19:33.791Z,98170.61
2018-12-19T20:22:07.800Z,98166.42
2018-12-19T20:24:41.811Z,98172.33
2018-12-19T20:27:15.819Z,98166.23
2018-12-19T20:29:49.828Z,98170.59
2018-12-19T20:32:23.736Z,98178.98
2018-12-19T20:34:57.470Z,98182.38
2018-12-19T20:37:31.448Z,98183.17
2018-12-19T20:40:06.073Z,98188.63
2018-12-19T20:42:39.877Z,98182.75
2018-12-19T20:45:13.681Z,98185.27
2018-12-19T20:47:47.692Z,98188.25
2018-12-19T20:50:21.702Z,98178.53
2018-12-19T20:52:55.959Z,98174.09
2018-12-19T20:55:30.036Z,98179.58
2018-12-19T20:58:04.005Z,98174.66
2018-12-19T21:00:38.251Z,98171.77
2018-12-19T21:03:12.365Z,98163.32
2018-12-19T21:05:46.276Z,98119.53
2018-12-19T21:08:20.384Z,98165.86
2018-12-19T21:10:54.397Z,98164.78
2018-12-19T21:13:28.303Z,98166.15
2018-12-19T21:16:02.089Z,98162.17
2018-12-19T21:18:43.077Z,98163.70
2018-12-19T21:21:17.166Z,98163.92
2018-12-19T21:23:51.301Z,98163.48
2018-12-19T21:26:25.106Z,98166.30
2018-12-19T21:28:59.012Z,98174.14
2018-12-19T21:31:32.818Z,98180.05
2018-12-19T21:34:06.623Z,98177.52
2018-12-19T21:36:40.530Z,98169.00
2018-12-19T21:39:14.243Z,98168.40
2018-12-19T21:41:48.142Z,98178.38
2018-12-19T21:44:22.150Z,98179.83
2018-12-19T21:46:56.056Z,98172.78
2018-12-19T21:49:29.870Z,98116.13
2018-12-19T21:52:03.876Z,98173.00
2018-12-19T21:54:37.911Z,98173.47
2018-12-19T21:57:11.849Z,98174.77
2018-12-19T21:59:46.002Z,98168.39
2018-12-19T22:02:19.808Z,98171.44
2018-12-19T22:04:53.620Z,98177.88
2018-12-19T22:07:27.531Z,98182.41
2018-12-19T22:10:01.588Z,98189.87
2018-12-19T22:12:35.514Z,98193.03
2018-12-19T22:15:09.603Z,98194.26
2018-12-19T22:17:47.522Z,98191.23
2018-12-19T22:20:21.561Z,98194.11
2018-12-19T22:22:55.548Z,98195.89
2018-12-19T22:25:29.683Z,98195.69
2018-12-19T22:28:03.552Z,98197.27
2018-12-19T22:30:37.662Z,98195.14
2018-12-19T22:33:11.716Z,98188.08
2018-12-19T22:35:45.822Z,98187.41
2018-12-19T22:38:19.891Z,98184.53
2018-12-19T22:40:54.100Z,98182.75
2018-12-19T22:43:29.188Z,98180.14
2018-12-19T22:46:03.108Z,98178.50
2018-12-19T22:48:37.215Z,98182.89
2018-12-19T22:51:11.086Z,98183.55
2018-12-19T22:53:45.225Z,98177.13
2018-12-19T22:56:18.891Z,98180.97
2018-12-19T22:58:52.878Z,98177.91
2018-12-19T23:01:32.779Z,98183.36
2018-12-19T23:04:07.193Z,98170.27
2018-12-19T23:06:41.275Z,98168.62
2018-12-19T23:09:15.319Z,98178.09
2018-12-19T23:11:49.229Z,98185.20
2018-12-19T23:14:23.236Z,98189.23
2018-12-19T23:16:59.301Z,98191.69
2018-12-19T23:19:33.304Z,98190.25
2018-12-19T23:22:07.130Z,98193.21
2018-12-19T23:24:41.119Z,98198.61
2018-12-19T23:27:15.257Z,98199.50
2018-12-19T23:29:49.343Z,98189.39
2018-12-19T23:32:29.065Z,98185.02
2018-12-19T23:35:02.889Z,98171.61
2018-12-19T23:37:37.003Z,98166.17
2018-12-19T23:40:10.948Z,98160.08
2018-12-19T23:42:45.066Z,98164.71
2018-12-19T23:45:19.543Z,98166.69
2018-12-19T23:47:53.415Z,98166.94
2018-12-19T23:50:27.368Z,98169.67
2018-12-19T23:53:01.419Z,98158.11
2018-12-19T23:55:35.533Z,98159.55
2018-12-19T23:58:09.436Z,98149.80
